Time;durP1;ratioP1;P1;durP2;ratioP2;P2;SDS_P1;SDS_P2;PMS_P1;PMS_P2;Temp;Humidity;BMP_temperature;BMP_pressure;BME280_temperature;BME280_humidity;BME280_pressure;Samples;Min_cycle;Max_cycle;Signal;HPM_P1;HPM_P2
2023/10/11 00:00:57;;;;;;;20.03;8.67;;;;;;;14.98;66.81;96658.50;4977791;28;20500;-70
2023/10/11 00:03:52;;;;;;;18.27;7.60;;;;;;;14.99;65.74;96655.75;4968744;28;20845;-70
2023/10/11 00:06:11;;;;;;;28.80;7.17;;;;;;;15.03;64.58;96664.34;4968572;28;20213;-70
2023/10/11 00:08:40;;;;;;;10.83;6.43;;;;;;;15.13;63.84;96660.22;4968763;28;20969;-71
2023/10/11 00:11:07;;;;;;;16.33;6.80;;;;;;;15.17;63.69;96655.63;4968264;28;20451;-70
2023/10/11 00:13:35;;;;;;;13.87;7.40;;;;;;;15.21;62.74;96657.13;4968481;28;20483;-70
2023/10/11 00:16:10;;;;;;;18.60;7.27;;;;;;;15.19;63.28;96651.97;4968970;28;20445;-69
2023/10/11 00:18:37;;;;;;;17.10;7.03;;;;;;;15.03;63.71;96654.63;4968677;28;20412;-69
2023/10/11 00:21:10;;;;;;;13.67;6.40;;;;;;;15.06;64.02;96658.88;4968458;28;20520;-69
2023/10/11 00:23:38;;;;;;;12.70;6.80;;;;;;;15.12;64.00;96662.94;4969161;28;20867;-70
2023/10/11 00:26:03;;;;;;;10.20;6.93;;;;;;;15.10;63.53;96656.94;4968834;28;20837;-70
2023/10/11 00:28:31;;;;;;;12.87;6.77;;;;;;;15.10;63.31;96662.22;4968322;28;20416;-71
2023/10/11 00:31:00;;;;;;;10.93;7.03;;;;;;;15.00;63.72;96656.59;4968275;28;20896;-70
2023/10/11 00:33:26;;;;;;;10.90;6.50;;;;;;;14.99;63.26;96650.44;4968554;28;20445;-70
2023/10/11 00:35:54;;;;;;;29.23;8.50;;;;;;;14.93;62.91;96647.31;4968611;28;20412;-70
2023/10/11 00:38:27;;;;;;;16.50;7.00;;;;;;;14.87;62.85;96652.97;4968470;28;20919;-69
2023/10/11 00:41:07;;;;;;;10.53;6.73;;;;;;;14.85;62.85;96647.75;4968234;28;20432;-69
2023/10/11 00:43:38;;;;;;;9.20;5.97;;;;;;;14.83;62.29;96644.34;4968661;28;20427;-68
2023/10/11 00:46:08;;;;;;;11.00;6.37;;;;;;;14.79;62.64;96645.47;4968667;28;20530;-70
2023/10/11 00:48:35;;;;;;;17.57;6.90;;;;;;;14.79;62.55;96645.47;4968181;28;21319;-70
2023/10/11 00:51:00;;;;;;;15.50;6.90;;;;;;;14.76;62.75;96638.56;4968640;28;20429;-71
2023/10/11 00:53:26;;;;;;;15.30;7.20;;;;;;;14.79;62.80;96637.56;4968450;28;20472;-70
2023/10/11 00:55:55;;;;;;;11.90;6.43;;;;;;;14.73;63.10;96646.66;4968345;28;20201;-71
2023/10/11 00:58:22;;;;;;;25.80;8.03;;;;;;;14.67;63.23;96643.50;4968542;28;20484;-70
2023/10/11 01:00:49;;;;;;;15.90;7.30;;;;;;;14.75;62.54;96636.84;4967651;28;20441;-70
2023/10/11 01:03:14;;;;;;;13.80;6.10;;;;;;;14.65;62.36;96637.47;4968164;28;20409;-69
2023/10/11 01:05:44;;;;;;;8.60;5.30;;;;;;;14.61;62.33;96636.78;4968144;28;20907;-69
2023/10/11 01:08:10;;;;;;;8.70;6.10;;;;;;;14.70;61.60;96640.72;4968019;28;20193;-70
2023/10/11 01:10:45;;;;;;;11.97;6.33;;;;;;;14.71;61.14;96634.47;4967790;28;20444;-70
2023/10/11 01:13:11;;;;;;;11.47;5.50;;;;;;;14.56;61.53;96638.84;4968189;28;20527;-71
2023/10/11 01:15:37;;;;;;;14.97;5.97;;;;;;;14.46;61.41;96635.84;4968244;28;20409;-69
2023/10/11 01:18:03;;;;;;;9.57;5.73;;;;;;;14.45;61.45;96636.75;4967776;28;20421;-70
2023/10/11 01:20:31;;;;;;;16.37;6.17;;;;;;;14.41;61.52;96632.59;4967867;28;20239;-70
2023/10/11 01:22:57;;;;;;;16.60;6.33;;;;;;;14.42;61.36;96623.72;4970038;28;20456;-69
2023/10/11 01:25:22;;;;;;;12.53;6.20;;;;;;;14.40;61.50;96630.88;4971662;28;20514;-69
2023/10/11 01:27:48;;;;;;;15.53;6.47;;;;;;;14.37;61.71;96629.25;4971965;28;20881;-69
2023/10/11 01:30:14;;;;;;;15.63;6.77;;;;;;;14.42;61.67;96622.88;4971875;28;20265;-70
2023/10/11 01:32:43;;;;;;;13.30;6.63;;;;;;;14.45;61.69;96630.63;4971653;28;20181;-70
2023/10/11 01:35:14;;;;;;;17.20;8.53;;;;;;;14.36;62.89;96621.41;4971864;28;20423;-71
2023/10/11 01:37:43;;;;;;;14.30;6.27;;;;;;;14.34;62.57;96616.25;4972276;28;20470;-70
2023/10/11 01:40:20;;;;;;;15.43;7.00;;;;;;;14.29;62.75;96620.94;4973981;28;20412;-69
2023/10/11 01:42:50;;;;;;;9.90;6.00;;;;;;;14.19;63.61;96617.06;4971180;28;20435;-69
2023/10/11 01:45:19;;;;;;;10.73;7.00;;;;;;;14.27;63.86;96616.66;4971356;28;20959;-69
2023/10/11 01:47:46;;;;;;;16.77;7.43;;;;;;;14.08;64.25;96622.06;4971778;28;20455;-70
2023/10/11 01:50:14;;;;;;;11.27;7.13;;;;;;;14.11;63.84;96612.22;4971427;28;20840;-69
2023/10/11 01:52:40;;;;;;;17.10;6.97;;;;;;;14.09;63.67;96611.44;4971795;28;20444;-70
2023/10/11 01:55:05;;;;;;;9.77;6.77;;;;;;;14.02;63.39;96611.88;4977291;28;20444;-71
2023/10/11 01:57:31;;;;;;;11.43;7.17;;;;;;;14.01;63.34;96608.38;4979424;28;20225;-70
2023/10/11 01:59:58;;;;;;;14.80;7.70;;;;;;;14.12;62.51;96611.28;4977074;28;20174;-70
2023/10/11 02:02:27;;;;;;;32.60;8.37;;;;;;;14.03;62.57;96616.19;4975379;28;20304;-70
2023/10/11 02:04:57;;;;;;;13.57;6.80;;;;;;;13.95;62.74;96604.28;4975539;28;20464;-70
2023/10/11 02:07:22;;;;;;;14.97;6.90;;;;;;;14.08;62.41;96608.88;4977262;28;20463;-71
2023/10/11 02:09:48;;;;;;;12.90;6.37;;;;;;;14.07;62.63;96612.47;4978640;28;20453;-71
2023/10/11 02:12:17;;;;;;;12.47;6.30;;;;;;;13.97;62.70;96612.97;4980055;28;20229;-70
2023/10/11 02:14:44;;;;;;;15.17;6.07;;;;;;;13.95;63.05;96606.91;4978815;28;20448;-70
2023/10/11 02:17:13;;;;;;;12.80;6.60;;;;;;;13.89;63.28;96609.03;4977447;28;20463;-72
2023/10/11 02:19:38;;;;;;;14.73;6.77;;;;;;;13.94;63.60;96607.88;4976689;28;20405;-70
2023/10/11 02:22:04;;;;;;;16.33;6.73;;;;;;;13.75;64.82;96610.63;4970108;28;20440;-70
2023/10/11 02:24:29;;;;;;;11.17;7.00;;;;;;;13.84;64.99;96606.66;4969980;28;20238;-68
2023/10/11 02:26:55;;;;;;;13.83;6.97;;;;;;;13.88;65.31;96612.63;4969741;28;20165;-71
2023/10/11 02:29:21;;;;;;;11.93;7.87;;;;;;;13.79;65.97;96608.66;4969308;28;20655;-71
2023/10/11 02:31:51;;;;;;;12.20;7.67;;;;;;;13.79;66.49;96613.09;4969540;28;20309;-71
2023/10/11 02:34:17;;;;;;;13.20;8.40;;;;;;;13.83;67.09;96610.22;4969247;28;20409;-70
2023/10/11 02:36:43;;;;;;;12.47;7.33;;;;;;;13.83;67.25;96612.00;4969304;28;20424;-70
2023/10/11 02:39:17;;;;;;;12.20;7.27;;;;;;;13.85;67.44;96607.50;4969219;28;20915;-70
2023/10/11 02:41:47;;;;;;;14.17;7.83;;;;;;;13.90;67.18;96616.88;4970359;28;20461;-69
2023/10/11 02:44:13;;;;;;;12.90;8.40;;;;;;;13.85;67.44;96618.06;4969434;28;20417;-70
2023/10/11 02:46:42;;;;;;;17.07;8.10;;;;;;;13.82;67.76;96613.81;4969030;28;20483;-70
2023/10/11 02:49:18;;;;;;;22.83;8.90;;;;;;;13.73;67.80;96616.94;4968778;28;20417;-70
2023/10/11 02:51:59;;;;;;;22.93;7.83;;;;;;;13.68;68.31;96609.25;4968980;28;21158;-70
2023/10/11 02:54:33;;;;;;;10.80;7.57;;;;;;;13.77;67.86;96610.53;4969080;28;20408;-70
2023/10/11 02:56:59;;;;;;;10.90;6.93;;;;;;;13.71;67.89;96614.34;4969295;28;20409;-70
2023/10/11 02:59:24;;;;;;;12.10;8.23;;;;;;;13.68;67.90;96614.53;4969202;28;20409;-70
2023/10/11 03:02:00;;;;;;;14.33;9.07;;;;;;;13.67;67.94;96610.16;4969250;28;20228;-70
2023/10/11 03:04:35;;;;;;;14.83;8.37;;;;;;;13.71;67.76;96610.88;4968908;28;20212;-70
2023/10/11 03:07:01;;;;;;;15.43;8.13;;;;;;;13.72;67.77;96612.56;4968977;28;20502;-70
2023/10/11 03:09:27;;;;;;;11.27;6.77;;;;;;;13.56;68.37;96607.28;4968681;28;20417;-70
2023/10/11 03:11:56;;;;;;;12.00;6.53;;;;;;;13.56;68.03;96607.28;4930467;28;1138875;-69
2023/10/11 03:14:23;;;;;;;16.70;7.87;;;;;;;13.54;68.50;96601.22;4969906;28;20421;-69
2023/10/11 03:16:56;;;;;;;15.00;8.83;;;;;;;13.60;68.13;96602.69;4969836;28;20440;-70
2023/10/11 03:19:25;;;;;;;15.20;8.37;;;;;;;13.59;67.93;96593.91;4969557;28;20417;-70
2023/10/11 03:21:56;;;;;;;14.50;7.70;;;;;;;13.53;68.29;96596.88;4969835;28;20437;-70
2023/10/11 03:24:24;;;;;;;11.40;7.83;;;;;;;13.51;68.30;96594.34;4969871;28;20409;-69
2023/10/11 03:26:51;;;;;;;18.87;8.10;;;;;;;13.48;68.64;96596.25;4969781;28;20563;-70
2023/10/11 03:29:21;;;;;;;18.47;7.63;;;;;;;13.59;68.24;96599.19;4969210;28;20471;-70
2023/10/11 03:31:47;;;;;;;9.90;7.60;;;;;;;13.47;68.56;96597.22;4969619;28;20437;-70
2023/10/11 03:34:14;;;;;;;14.57;7.60;;;;;;;13.45;68.33;96588.53;4969538;28;20425;-72
2023/10/11 03:36:51;;;;;;;19.30;8.57;;;;;;;13.30;68.73;96595.44;4967387;28;20520;-70
2023/10/11 03:39:27;;;;;;;11.80;8.50;;;;;;;13.31;69.05;96598.00;4967266;28;20427;-70
2023/10/11 03:42:06;;;;;;;9.50;7.57;;;;;;;13.28;69.57;96598.16;4965672;28;20445;-69
2023/10/11 03:44:35;;;;;;;12.00;7.60;;;;;;;13.27;69.43;96585.88;4968587;28;20421;-69
2023/10/11 03:47:09;;;;;;;11.70;7.60;;;;;;;13.29;69.69;96594.56;4969158;28;20421;-69
2023/10/11 03:52:16;;;;;;;12.20;8.33;;;;;;;13.34;69.50;96586.44;4965300;28;20553;-70
2023/10/11 03:54:45;;;;;;;10.10;6.97;;;;;;;13.29;69.55;96596.38;4967129;28;20475;-69
2023/10/11 03:57:10;;;;;;;16.70;8.80;;;;;;;13.31;69.50;96592.72;4970238;28;20445;-70
2023/10/11 03:59:39;;;;;;;13.63;7.97;;;;;;;13.28;69.35;96597.31;4970184;28;20986;-70
2023/10/11 04:02:10;;;;;;;9.60;8.30;;;;;;;13.35;69.47;96588.16;4961245;28;20557;-70
2023/10/11 04:04:40;;;;;;;11.63;7.43;;;;;;;13.21;70.04;96590.63;4960692;28;20742;-70
2023/10/11 04:07:05;;;;;;;12.53;7.90;;;;;;;13.23;69.50;96586.97;4976609;28;20470;-70
2023/10/11 04:09:49;;;;;;;10.03;8.03;;;;;;;13.13;69.60;96580.44;4979768;28;20895;-71
2023/10/11 04:12:14;;;;;;;11.40;7.37;;;;;;;13.14;69.92;96590.91;4963677;28;20213;-70
2023/10/11 04:14:44;;;;;;;16.00;7.57;;;;;;;13.16;69.79;96589.97;4965326;28;20928;-70
2023/10/11 04:19:52;;;;;;;13.77;8.07;;;;;;;13.03;69.78;96593.25;4978651;28;20431;-70
2023/10/11 04:22:23;;;;;;;17.03;8.93;;;;;;;12.91;70.68;96592.06;4979666;28;20436;-70
2023/10/11 04:24:55;;;;;;;15.10;8.70;;;;;;;13.05;70.16;96585.28;4981735;28;21211;-70
2023/10/11 04:29:50;;;;;;;20.20;8.10;;;;;;;13.04;69.29;96594.09;4965688;28;20441;-68
2023/10/11 04:32:32;;;;;;;15.53;9.50;;;;;;;13.03;69.78;96601.13;4965263;28;20532;-70
2023/10/11 04:34:57;;;;;;;15.53;8.70;;;;;;;13.00;69.76;96596.03;4977170;28;20500;-69
2023/10/11 04:37:33;;;;;;;13.77;8.20;;;;;;;13.07;69.59;96601.84;4965907;28;20511;-71
2023/10/11 04:40:15;;;;;;;12.33;8.30;;;;;;;12.99;69.87;96601.38;4976353;28;20177;-70
2023/10/11 04:42:40;;;;;;;17.07;9.23;;;;;;;13.02;69.24;96599.44;4949384;28;20425;-69
2023/10/11 04:45:06;;;;;;;13.00;9.20;;;;;;;13.00;69.79;96603.09;4959414;28;20473;-70
2023/10/11 04:47:50;;;;;;;17.93;9.20;;;;;;;13.09;69.44;96602.63;4979132;28;20182;-69
2023/10/11 04:50:16;;;;;;;13.13;8.10;;;;;;;13.11;68.94;96601.63;4972906;28;20440;-68
2023/10/11 04:52:47;;;;;;;14.57;9.63;;;;;;;13.03;69.37;96603.78;4963492;28;20447;-68
2023/10/11 04:55:14;;;;;;;15.67;8.60;;;;;;;13.02;69.35;96604.72;4965037;28;20225;-67
2023/10/11 05:00:30;;;;;;;12.13;8.17;;;;;;;12.89;69.30;96607.09;4965933;28;20867;-72
2023/10/11 05:02:58;;;;;;;18.83;9.20;;;;;;;12.87;69.86;96608.97;4964909;28;20966;-70
2023/10/11 05:05:24;;;;;;;15.70;8.60;;;;;;;12.70;70.60;96608.94;4963567;28;20473;-71
2023/10/11 05:08:01;;;;;;;18.17;9.80;;;;;;;12.82;70.13;96610.13;4961883;28;20443;-71
2023/10/11 05:12:58;;;;;;;15.90;10.87;;;;;;;12.62;70.90;96613.75;4967410;28;20447;-69
2023/10/11 05:15:32;;;;;;;20.20;10.20;;;;;;;12.50;70.83;96608.13;4964140;28;20603;-71
2023/10/11 05:18:06;;;;;;;25.93;12.37;;;;;;;12.50;70.82;96602.88;4963982;28;20511;-70
2023/10/11 05:23:06;;;;;;;19.87;13.73;;;;;;;12.49;70.90;96609.03;4967573;28;20427;-71
2023/10/11 05:25:45;;;;;;;20.03;14.07;;;;;;;12.46;71.21;96613.63;4990092;28;20459;-75
2023/10/11 05:31:06;;;;;;;33.00;15.77;;;;;;;12.61;70.73;96612.88;4974656;28;21261;-72
2023/10/11 05:33:45;;;;;;;25.07;14.63;;;;;;;12.65;70.77;96610.94;4983683;28;20492;-72
2023/10/11 05:36:16;;;;;;;24.73;13.70;;;;;;;12.67;70.25;96622.25;4978435;28;20441;-71
2023/10/11 05:52:25;;;;;;;23.50;11.83;;;;;;;13.09;68.48;96642.16;4965394;28;20512;-70
2023/10/11 05:54:53;;;;;;;23.33;10.60;;;;;;;13.10;68.20;96639.44;4966496;28;20917;-69
2023/10/11 05:57:19;;;;;;;17.83;10.40;;;;;;;13.40;67.22;96641.47;4967035;28;20420;-70
2023/10/11 05:59:47;;;;;;;17.70;11.40;;;;;;;13.33;67.70;96643.56;4966448;28;20884;-70
2023/10/11 06:02:18;;;;;;;17.70;10.37;;;;;;;13.20;68.04;96637.19;4966915;28;20440;-70
2023/10/11 06:04:45;;;;;;;26.10;11.20;;;;;;;13.46;67.25;96633.25;4967007;28;20440;-71
2023/10/11 06:07:21;;;;;;;17.83;8.67;;;;;;;14.46;63.99;96635.84;4965843;28;20503;-69
2023/10/11 06:09:52;;;;;;;19.50;9.60;;;;;;;15.03;61.55;96635.28;4969466;28;20488;-71
2023/10/11 06:12:27;;;;;;;16.47;10.20;;;;;;;15.72;59.63;96631.22;4975326;28;20427;-71
2023/10/11 06:14:57;;;;;;;29.30;9.43;;;;;;;16.19;57.71;96638.03;4971884;28;20408;-71
2023/10/11 06:17:33;;;;;;;12.77;9.23;;;;;;;16.79;56.61;96628.09;4976227;28;20436;-71
2023/10/11 06:20:17;;;;;;;15.60;8.57;;;;;;;17.65;55.17;96632.97;4976088;28;20448;-71
2023/10/11 06:22:42;;;;;;;26.90;11.37;;;;;;;18.04;52.49;96631.19;4974065;28;20439;-72
2023/10/11 06:25:08;;;;;;;28.13;11.00;;;;;;;18.24;51.48;96632.44;4982235;28;20467;-69
2023/10/11 06:30:17;;;;;;;28.37;10.47;;;;;;;18.38;50.66;96627.00;4985690;28;20272;-72
2023/10/11 06:32:43;;;;;;;28.80;11.43;;;;;;;19.08;49.41;96623.66;4974170;28;20507;-73
2023/10/11 06:35:16;;;;;;;17.93;11.47;;;;;;;19.52;48.25;96626.63;4975327;28;20192;-72
2023/10/11 06:37:42;;;;;;;20.77;11.53;;;;;;;19.60;48.03;96627.72;4971090;28;20184;-71
2023/10/11 06:40:08;;;;;;;32.97;14.00;;;;;;;19.92;47.37;96626.25;4981727;28;20427;-72
2023/10/11 06:42:33;;;;;;;21.60;12.20;;;;;;;20.47;46.01;96630.72;4990009;28;20247;-71
2023/10/11 06:45:05;;;;;;;21.30;11.20;;;;;;;20.56;45.55;96623.00;4989868;28;20455;-71
2023/10/11 06:47:35;;;;;;;21.70;12.43;;;;;;;20.72;45.12;96618.13;4977382;28;20181;-70
2023/10/11 06:50:10;;;;;;;25.00;10.57;;;;;;;20.97;44.76;96626.78;4981445;28;20411;-71
2023/10/11 06:52:37;;;;;;;19.50;10.67;;;;;;;21.51;43.77;96623.19;4979782;28;20575;-71
2023/10/11 06:55:18;;;;;;;14.03;10.80;;;;;;;21.50;43.54;96617.00;4977436;28;20412;-71
2023/10/11 06:57:51;;;;;;;19.20;10.50;;;;;;;21.99;42.55;96619.94;4963884;28;20437;-72
2023/10/11 07:00:21;;;;;;;17.00;8.97;;;;;;;22.21;41.91;96610.13;4972647;28;20421;-71
2023/10/11 07:03:08;;;;;;;12.27;8.37;;;;;;;22.32;41.80;96624.25;4976677;28;20408;-70
2023/10/11 07:05:40;;;;;;;16.50;9.83;;;;;;;22.88;40.63;96605.94;4971135;28;20467;-70
2023/10/11 07:08:08;;;;;;;19.43;9.30;;;;;;;23.06;40.45;96606.16;4970837;28;20416;-71
2023/10/11 07:10:34;;;;;;;16.90;10.40;;;;;;;23.27;39.92;96603.31;4973407;28;20928;-71
2023/10/11 07:13:04;;;;;;;9.53;8.50;;;;;;;23.57;39.78;96597.78;4976686;28;20448;-71
2023/10/11 07:15:41;;;;;;;14.00;8.17;;;;;;;24.11;38.82;96598.13;4969351;28;20417;-72
2023/10/11 07:18:21;;;;;;;15.27;9.03;;;;;;;24.14;38.32;96595.13;4982036;28;21038;-71
2023/10/11 07:20:47;;;;;;;16.97;8.93;;;;;;;24.97;37.29;96597.88;4948749;28;20430;-72
2023/10/11 07:23:20;;;;;;;13.87;9.70;;;;;;;25.07;37.12;96598.63;4950762;29;20771;-71
2023/10/11 07:25:47;;;;;;;15.90;9.40;;;;;;;25.04;37.09;96601.63;4965639;28;20280;-72
2023/10/11 07:28:17;;;;;;;13.30;7.80;;;;;;;24.82;37.74;96602.03;4981197;28;20532;-71
2023/10/11 07:30:44;;;;;;;13.80;9.17;;;;;;;25.18;37.06;96599.41;4988649;28;20438;-71
2023/10/11 07:33:12;;;;;;;15.40;8.93;;;;;;;25.41;36.54;96597.97;4988094;28;20503;-71
2023/10/11 07:35:46;;;;;;;16.93;8.27;;;;;;;25.07;37.34;96612.06;4980148;28;20455;-72
2023/10/11 07:38:14;;;;;;;17.40;9.73;;;;;;;24.76;38.11;96605.31;4980785;28;20406;-72
2023/10/11 07:40:46;;;;;;;23.57;9.97;;;;;;;24.44;39.13;96607.44;4989786;28;21010;-71
2023/10/11 07:43:15;;;;;;;18.20;8.90;;;;;;;23.85;40.37;96606.81;4974364;28;20919;-71
2023/10/11 07:45:50;;;;;;;20.50;10.07;;;;;;;23.75;40.58;96616.72;4977583;28;20982;-71
2023/10/11 07:48:16;;;;;;;20.83;10.33;;;;;;;24.09;40.32;96618.88;4980767;28;20452;-72
2023/10/11 07:50:42;;;;;;;19.50;9.97;;;;;;;23.80;41.06;96625.16;4971099;28;20947;-71
2023/10/11 07:53:13;;;;;;;21.27;9.93;;;;;;;23.85;41.24;96624.72;4976631;28;20464;-72
2023/10/11 07:55:40;;;;;;;14.53;8.83;;;;;;;23.51;41.74;96621.66;4950424;28;20819;-71
2023/10/11 07:58:08;;;;;;;16.50;9.27;;;;;;;23.19;42.34;96617.41;4949823;29;20416;-71
2023/10/11 08:00:40;;;;;;;13.70;8.20;;;;;;;23.42;42.29;96609.94;4953428;28;20563;-71
2023/10/11 08:03:07;;;;;;;17.63;9.60;;;;;;;23.52;42.47;96612.63;4968235;28;20443;-72
2023/10/11 08:05:35;;;;;;;15.93;8.83;;;;;;;23.39;42.31;96613.75;4977634;28;20456;-72
2023/10/11 08:08:01;;;;;;;14.43;8.57;;;;;;;23.40;42.30;96617.28;4969442;28;20491;-73
2023/10/11 08:10:29;;;;;;;14.50;7.63;;;;;;;23.85;41.60;96605.97;4982203;28;20895;-74
2023/10/11 08:12:57;;;;;;;19.37;8.97;;;;;;;23.75;42.05;96619.38;4991491;28;20172;-73
2023/10/11 08:15:25;;;;;;;10.47;8.27;;;;;;;23.72;42.39;96616.97;4983148;28;20457;-74
2023/10/11 08:17:51;;;;;;;33.03;9.60;;;;;;;23.72;43.21;96608.94;4978844;28;20413;-74
2023/10/11 08:20:16;;;;;;;15.60;8.73;;;;;;;23.99;41.89;96607.34;4972358;28;20505;-72
2023/10/11 08:22:43;;;;;;;16.23;8.60;;;;;;;23.86;42.05;96605.81;4969746;28;20753;-75
2023/10/11 08:25:12;;;;;;;15.10;9.90;;;;;;;23.98;41.96;96611.03;4979809;28;20197;-72
2023/10/11 08:27:38;;;;;;;19.07;9.10;;;;;;;24.28;41.95;96602.72;4950537;28;20413;-74
2023/10/11 08:32:33;;;;;;;14.30;8.80;;;;;;;24.15;41.96;96602.22;4977322;28;20297;-72
2023/10/11 08:34:59;;;;;;;14.07;8.93;;;;;;;24.30;41.92;96598.03;4984332;28;20447;-73
2023/10/11 08:37:25;;;;;;;14.33;9.17;;;;;;;24.20;42.76;96599.09;4980483;28;20527;-73
2023/10/11 08:39:54;;;;;;;14.83;8.60;;;;;;;24.32;42.20;96597.91;4978738;28;20173;-72
2023/10/11 08:42:19;;;;;;;14.53;8.10;;;;;;;24.22;42.55;96602.47;4979004;28;20432;-73
2023/10/11 08:44:45;;;;;;;18.00;9.03;;;;;;;24.56;41.94;96596.56;4982009;28;20440;-73
2023/10/11 08:47:16;;;;;;;20.37;8.80;;;;;;;24.41;41.99;96594.34;4988538;28;20171;-72
2023/10/11 08:49:42;;;;;;;14.97;9.10;;;;;;;24.56;42.42;96600.06;4988439;28;20177;-74
2023/10/11 08:52:32;;;;;;;13.00;9.00;;;;;;;24.61;41.98;96596.94;4988235;28;20953;-70
2023/10/11 08:54:59;;;;;;;16.10;8.20;;;;;;;24.57;42.56;96590.19;4988498;28;20474;-72
2023/10/11 08:57:26;;;;;;;21.47;8.90;;;;;;;24.51;42.42;96586.28;4950013;29;20889;-72
2023/10/11 08:59:57;;;;;;;13.70;8.77;;;;;;;24.61;42.72;96591.56;4951570;28;20414;-73
2023/10/11 09:02:26;;;;;;;13.70;8.93;;;;;;;24.35;42.71;96592.22;4969647;28;20444;-73
2023/10/11 09:05:12;;;;;;;18.03;8.50;;;;;;;24.32;42.70;96584.50;4969210;28;20424;-73
2023/10/11 09:07:45;;;;;;;20.70;9.00;;;;;;;24.45;42.72;96590.38;4969209;28;20459;-72
2023/10/11 09:10:28;;;;;;;14.30;8.20;;;;;;;24.58;42.60;96598.09;4968727;28;20930;-73
2023/10/11 09:13:01;;;;;;;19.87;9.70;;;;;;;24.98;41.77;96590.66;4969061;28;20413;-73
2023/10/11 09:15:40;;;;;;;21.63;8.97;;;;;;;24.97;41.85;96575.50;4969083;28;20405;-71
2023/10/11 09:18:14;;;;;;;28.27;9.87;;;;;;;24.44;43.10;96567.19;4966136;28;20440;-72
2023/10/11 09:20:42;;;;;;;13.87;7.77;;;;;;;24.47;42.95;96574.13;4965536;28;20540;-72
2023/10/11 09:23:11;;;;;;;17.70;8.67;;;;;;;24.71;42.75;96574.44;4975816;28;20431;-73
2023/10/11 09:25:57;;;;;;;22.97;10.20;;;;;;;24.48;42.84;96576.69;4978611;28;20460;-71
2023/10/11 09:28:26;;;;;;;19.93;9.17;;;;;;;24.67;42.78;96583.78;4985617;28;20439;-71
2023/10/11 09:31:16;;;;;;;19.13;8.30;;;;;;;24.96;41.73;96585.41;4976071;28;20433;-72
2023/10/11 09:33:53;;;;;;;15.33;7.07;;;;;;;24.75;42.12;96579.50;4979164;28;20416;-74
2023/10/11 09:36:20;;;;;;;23.57;7.13;;;;;;;24.57;42.42;96584.81;4990461;28;20416;-72
2023/10/11 09:38:54;;;;;;;19.10;8.77;;;;;;;24.45;43.10;96581.44;4981938;28;20420;-72
2023/10/11 09:41:25;;;;;;;10.30;7.70;;;;;;;24.75;42.76;96585.69;4973472;28;20483;-73
2023/10/11 09:43:56;;;;;;;10.67;5.80;;;;;;;24.64;44.19;96593.97;4962059;28;20422;-71
2023/10/11 09:46:29;;;;;;;18.83;7.63;;;;;;;24.44;43.83;96583.28;4970677;28;20464;-72
2023/10/11 09:48:55;;;;;;;17.80;7.13;;;;;;;24.25;44.82;96581.56;4969217;28;20409;-72
2023/10/11 09:51:24;;;;;;;14.20;7.80;;;;;;;24.23;44.10;96585.38;4970912;28;20449;-71
2023/10/11 09:53:50;;;;;;;13.37;7.77;;;;;;;24.26;44.22;96590.44;4971077;28;20464;-72
2023/10/11 09:56:22;;;;;;;17.10;8.13;;;;;;;24.08;44.66;96580.50;4968795;28;20436;-74
2023/10/11 09:59:11;;;;;;;13.30;8.70;;;;;;;24.25;44.63;96580.72;4977291;28;20204;-73
2023/10/11 10:02:04;;;;;;;21.27;8.33;;;;;;;24.13;44.00;96584.59;4969208;28;20448;-72
2023/10/11 10:04:52;;;;;;;22.63;8.10;;;;;;;24.30;44.36;96578.44;4972814;28;20451;-72
2023/10/11 10:07:28;;;;;;;31.20;7.60;;;;;;;24.41;44.60;96575.56;4964445;28;20445;-71
2023/10/11 10:09:59;;;;;;;20.60;7.30;;;;;;;24.32;44.84;96565.72;4970878;28;20448;-72
2023/10/11 10:12:45;;;;;;;19.33;7.60;;;;;;;24.20;45.13;96575.78;4980799;28;20440;-72
2023/10/11 10:15:14;;;;;;;34.00;7.77;;;;;;;24.37;45.13;96573.31;4979198;28;20443;-73
2023/10/11 10:18:00;;;;;;;57.03;12.47;;;;;;;24.39;44.98;96576.69;4971074;28;20492;-74
2023/10/11 10:20:32;;;;;;;46.73;11.53;;;;;;;24.62;43.81;96571.81;4972010;28;20424;-72
2023/10/11 10:23:22;;;;;;;27.73;9.13;;;;;;;24.43;44.38;96572.75;4971938;28;21018;-72
2023/10/11 10:26:05;;;;;;;27.00;8.20;;;;;;;24.36;44.50;96572.47;4971216;28;20541;-73
2023/10/11 10:28:39;;;;;;;53.50;10.60;;;;;;;24.39;44.65;96568.66;4983706;28;21267;-72
2023/10/11 10:31:18;;;;;;;30.07;9.37;;;;;;;24.56;43.93;96569.72;4971355;28;20467;-73
2023/10/11 10:33:44;;;;;;;41.43;9.20;;;;;;;24.64;44.05;96575.19;4963534;28;20427;-71
2023/10/11 10:36:20;;;;;;;52.30;9.43;;;;;;;24.79;43.44;96572.84;4977512;28;20473;-72
2023/10/11 10:39:00;;;;;;;34.97;8.60;;;;;;;24.73;43.16;96568.91;4970375;28;20503;-73
2023/10/11 10:41:27;;;;;;;39.13;9.97;;;;;;;24.59;43.64;96572.97;4975845;28;20848;-71
2023/10/11 10:44:12;;;;;;;24.23;8.23;;;;;;;24.59;43.21;96562.22;4979623;28;20416;-75
2023/10/11 10:46:52;;;;;;;103.93;11.50;;;;;;;24.69;42.97;96556.81;4975090;28;20470;-73
2023/10/11 10:49:19;;;;;;;60.80;10.13;;;;;;;24.68;42.84;96558.63;4974023;28;20420;-73
2023/10/11 10:51:47;;;;;;;27.43;7.80;;;;;;;24.61;42.72;96559.38;4975896;28;21012;-72
2023/10/11 10:54:22;;;;;;;200.73;24.90;;;;;;;24.53;42.92;96557.44;4982222;28;20544;-72
2023/10/11 10:56:48;;;;;;;49.87;10.83;;;;;;;24.54;43.14;96548.41;4988800;28;20388;-71
2023/10/11 10:59:26;;;;;;;22.30;7.37;;;;;;;24.67;42.66;96542.69;4981791;28;20444;-73
2023/10/11 11:01:53;;;;;;;16.80;6.53;;;;;;;24.66;42.54;96541.84;4979110;28;20451;-73
2023/10/11 11:04:28;;;;;;;14.23;6.73;;;;;;;24.43;43.29;96535.19;4983632;28;20447;-72
2023/10/11 11:06:55;;;;;;;19.33;6.43;;;;;;;24.47;42.92;96531.22;4990979;28;20506;-72
2023/10/11 11:09:27;;;;;;;15.57;5.30;;;;;;;24.55;42.83;96531.31;4980988;28;20519;-73
2023/10/11 11:11:57;;;;;;;15.77;5.77;;;;;;;24.54;42.87;96521.56;4978488;28;20452;-74
2023/10/11 11:14:23;;;;;;;12.23;5.90;;;;;;;24.61;42.87;96524.50;4989702;28;20400;-73
2023/10/11 11:17:00;;;;;;;14.77;5.53;;;;;;;24.63;42.65;96514.47;4990545;28;20414;-73
2023/10/11 11:19:26;;;;;;;16.33;6.20;;;;;;;24.66;42.88;96516.81;4951124;28;20508;-73
2023/10/11 11:22:15;;;;;;;14.63;5.83;;;;;;;24.50;42.87;96510.31;4950614;28;20525;-73
2023/10/11 11:24:42;;;;;;;11.93;6.10;;;;;;;24.51;42.76;96511.16;4967973;28;20446;-74
2023/10/11 11:27:25;;;;;;;12.97;6.60;;;;;;;24.61;43.07;96497.66;4982479;28;20460;-73
2023/10/11 11:29:54;;;;;;;15.10;5.67;;;;;;;24.57;42.58;96505.19;4977419;28;20435;-74
2023/10/11 11:32:41;;;;;;;10.67;4.90;;;;;;;24.67;42.32;96494.38;4973106;28;20554;-73
2023/10/11 11:35:28;;;;;;;15.77;7.03;;;;;;;24.77;41.84;96488.94;4971039;28;20456;-73
2023/10/11 11:38:02;;;;;;;14.77;6.50;;;;;;;24.84;41.91;96488.16;4970118;28;20436;-75
2023/10/11 11:40:30;;;;;;;13.27;6.03;;;;;;;24.78;41.99;96486.09;4978279;28;20512;-73
2023/10/11 11:43:00;;;;;;;17.17;6.60;;;;;;;24.65;42.11;96478.41;4984653;28;20419;-72
2023/10/11 11:45:27;;;;;;;18.03;5.93;;;;;;;24.64;42.05;96483.97;4964570;28;20472;-71
2023/10/11 11:47:56;;;;;;;12.20;5.60;;;;;;;24.72;41.79;96474.13;4972016;28;20455;-73
2023/10/11 11:50:26;;;;;;;16.43;6.00;;;;;;;24.67;41.79;96473.75;4966754;28;20417;-72
2023/10/11 11:52:52;;;;;;;11.77;6.30;;;;;;;24.69;41.44;96466.41;4977141;28;20409;-73
2023/10/11 11:55:22;;;;;;;17.50;7.30;;;;;;;24.72;41.70;96467.94;4987219;28;20422;-73
2023/10/11 11:57:48;;;;;;;14.17;5.53;;;;;;;24.67;41.47;96468.38;4966808;28;20181;-73
2023/10/11 12:01:08;;;;;;;14.33;6.70;;;;;;;24.74;41.49;96463.25;4963082;28;20425;-73
2023/10/11 12:03:08;;;;;;;11.10;5.27;;;;;;;24.64;40.96;96457.97;4976359;28;20189;-74
2023/10/11 12:05:40;;;;;;;14.20;6.73;;;;;;;24.64;41.71;96463.34;4976012;28;20464;-73
2023/10/11 12:08:08;;;;;;;14.97;6.37;;;;;;;24.66;41.17;96455.09;4974148;28;20441;-73
2023/10/11 12:10:34;;;;;;;13.03;5.43;;;;;;;24.70;40.97;96457.34;4979264;28;20448;-72
2023/10/11 12:13:06;;;;;;;12.03;5.97;;;;;;;24.67;41.29;96448.75;4969360;28;20413;-73
2023/10/11 12:15:32;;;;;;;14.27;6.17;;;;;;;24.57;41.58;96448.84;4971518;28;20401;-73
2023/10/11 12:17:57;;;;;;;17.43;6.63;;;;;;;24.64;40.92;96447.22;4974664;28;20440;-72